createdAt,value
2023-05-21T00:00:34.366Z,16.83
2023-05-21T00:03:01.549Z,24.65
2023-05-21T00:05:28.582Z,22.15
2023-05-21T00:07:55.755Z,20.77
2023-05-21T00:10:22.784Z,22.05
2023-05-21T00:12:49.777Z,21.65
2023-05-21T00:15:17.082Z,18.15
2023-05-21T00:17:44.660Z,17.67
2023-05-21T00:20:11.997Z,20.70
2023-05-21T00:22:42.433Z,18.63
2023-05-21T00:25:10.769Z,17.60
2023-05-21T00:27:38.421Z,18.60
2023-05-21T00:30:06.005Z,20.17
2023-05-21T00:32:32.997Z,18.10
2023-05-21T00:35:00.247Z,18.67
2023-05-21T00:37:30.008Z,19.42
2023-05-21T00:39:58.296Z,23.15
2023-05-21T00:42:27.737Z,17.65
2023-05-21T00:44:54.875Z,19.75
2023-05-21T00:47:23.700Z,20.83
2023-05-21T00:49:53.015Z,18.10
2023-05-21T00:52:20.767Z,18.98
2023-05-21T00:54:50.039Z,16.45
2023-05-21T00:57:22.323Z,20.85
2023-05-21T00:59:53.589Z,17.98
2023-05-21T01:02:20.682Z,20.80
2023-05-21T01:04:47.936Z,24.02
2023-05-21T01:07:14.918Z,17.88
2023-05-21T01:09:43.679Z,18.02
2023-05-21T01:12:11.733Z,16.45
2023-05-21T01:14:40.271Z,22.55
2023-05-21T01:17:10.765Z,18.35
2023-05-21T01:19:38.344Z,21.08
2023-05-21T01:22:08.078Z,18.55
2023-05-21T01:24:35.611Z,20.15
2023-05-21T01:27:05.396Z,19.80
2023-05-21T01:29:32.713Z,17.75
2023-05-21T01:32:04.895Z,18.52
2023-05-21T01:34:54.068Z,19.60
2023-05-21T01:37:39.847Z,20.13
2023-05-21T01:40:28.720Z,21.80
2023-05-21T01:42:56.332Z,20.10
2023-05-21T01:45:25.990Z,22.45
2023-05-21T01:47:55.845Z,27.58
2023-05-21T01:50:27.586Z,19.52
2023-05-21T01:53:01.190Z,21.60
2023-05-21T01:55:31.086Z,19.65
2023-05-21T01:58:01.935Z,20.55
2023-05-21T02:00:29.707Z,23.55
2023-05-21T02:02:56.921Z,21.25
2023-05-21T02:05:24.525Z,20.10
2023-05-21T02:07:54.245Z,21.60
2023-05-21T02:10:21.612Z,22.85
2023-05-21T02:12:48.875Z,24.15
2023-05-21T02:15:18.126Z,20.23
2023-05-21T02:17:46.421Z,18.70
2023-05-21T02:20:14.243Z,20.52
2023-05-21T02:22:43.131Z,26.05
2023-05-21T02:25:11.611Z,26.20
2023-05-21T02:27:40.793Z,22.92
2023-05-21T02:30:09.520Z,26.15
2023-05-21T02:32:36.797Z,22.75
2023-05-21T02:35:04.911Z,24.02
2023-05-21T02:37:35.514Z,24.30
2023-05-21T02:40:04.413Z,22.95
2023-05-21T02:42:31.529Z,26.90
2023-05-21T02:44:58.666Z,24.13
2023-05-21T02:47:26.197Z,25.88
2023-05-21T02:49:53.718Z,27.15
2023-05-21T02:52:24.069Z,25.50
2023-05-21T02:54:52.048Z,25.00
2023-05-21T02:57:19.589Z,26.98
2023-05-21T02:59:46.441Z,31.73
2023-05-21T03:02:13.494Z,31.02
2023-05-21T03:04:46.330Z,30.10
2023-05-21T03:07:22.306Z,26.58
2023-05-21T03:09:49.216Z,27.20
2023-05-21T03:12:16.460Z,28.42
2023-05-21T03:14:44.303Z,32.10
2023-05-21T03:17:14.382Z,31.50
2023-05-21T03:19:42.583Z,29.88
2023-05-21T03:22:10.240Z,33.45
2023-05-21T03:24:38.788Z,32.33
2023-05-21T03:27:09.031Z,28.80
2023-05-21T03:29:36.312Z,30.30
2023-05-21T03:32:03.728Z,33.90
2023-05-21T03:34:31.298Z,32.25
2023-05-21T03:36:58.343Z,31.95
2023-05-21T03:39:25.351Z,30.15
2023-05-21T03:41:52.596Z,30.42
2023-05-21T03:44:21.816Z,30.10
2023-05-21T03:46:48.733Z,28.75
2023-05-21T03:49:15.675Z,29.63
2023-05-21T03:51:42.552Z,27.77
2023-05-21T03:54:09.773Z,33.63
2023-05-21T03:56:36.734Z,28.10
2023-05-21T03:59:03.638Z,28.05
2023-05-21T04:01:30.762Z,28.15
2023-05-21T04:03:57.918Z,24.75
2023-05-21T04:06:24.929Z,26.85
2023-05-21T04:08:52.393Z,28.52
2023-05-21T04:11:19.497Z,28.40
2023-05-21T04:13:48.239Z,30.05
2023-05-21T04:16:19.254Z,32.80
2023-05-21T04:18:47.512Z,27.40
2023-05-21T04:21:14.526Z,28.85
2023-05-21T04:23:41.437Z,31.38
2023-05-21T04:26:08.738Z,33.33
2023-05-21T04:28:35.985Z,32.85
2023-05-21T04:31:03.074Z,32.20
2023-05-21T04:33:30.806Z,30.73
2023-05-21T04:35:58.020Z,30.65
2023-05-21T04:38:26.100Z,33.50
2023-05-21T04:40:53.786Z,30.10
2023-05-21T04:43:27.716Z,31.42
2023-05-21T04:45:55.193Z,30.58
2023-05-21T04:48:27.285Z,25.38
2023-05-21T04:50:54.407Z,27.30
2023-05-21T04:53:22.033Z,32.22
2023-05-21T04:55:49.678Z,30.17
2023-05-21T04:58:18.437Z,33.47
2023-05-21T05:00:51.129Z,29.77
2023-05-21T05:03:18.373Z,27.48
2023-05-21T05:05:45.931Z,29.23
2023-05-21T05:08:15.593Z,37.30
2023-05-21T05:10:43.282Z,31.58
2023-05-21T05:13:10.154Z,31.20
2023-05-21T05:15:37.316Z,30.63
2023-05-21T05:18:04.667Z,31.02
2023-05-21T05:20:31.540Z,30.00
2023-05-21T05:22:58.291Z,31.17
2023-05-21T05:25:25.287Z,30.75
2023-05-21T05:27:52.118Z,30.05
2023-05-21T05:30:19.244Z,32.17
2023-05-21T05:32:46.764Z,31.35
2023-05-21T05:35:13.593Z,28.55
2023-05-21T05:37:40.476Z,31.08
2023-05-21T05:40:08.111Z,26.08
2023-05-21T05:42:35.332Z,27.50
2023-05-21T05:45:02.205Z,30.83
2023-05-21T05:47:29.148Z,30.77
2023-05-21T05:49:56.008Z,30.13
2023-05-21T05:52:22.925Z,29.05
2023-05-21T05:54:50.062Z,29.80
2023-05-21T05:57:16.908Z,27.20
2023-05-21T05:59:43.758Z,28.33
2023-05-21T06:02:11.160Z,26.88
2023-05-21T06:04:38.296Z,26.75
2023-05-21T06:07:05.600Z,25.83
2023-05-21T06:09:32.741Z,26.98
2023-05-21T06:11:59.878Z,24.30
2023-05-21T06:14:26.705Z,29.05
2023-05-21T06:16:53.651Z,27.55
2023-05-21T06:19:21.186Z,26.02
2023-05-21T06:21:48.632Z,24.83
2023-05-21T06:24:15.559Z,25.25
2023-05-21T06:26:42.815Z,23.42
2023-05-21T06:29:10.071Z,28.23
2023-05-21T06:31:36.993Z,27.02
2023-05-21T06:34:04.253Z,31.42
2023-05-21T06:36:32.568Z,25.08
2023-05-21T06:38:59.542Z,27.20
2023-05-21T06:41:26.574Z,27.65
2023-05-21T06:43:53.756Z,24.70
2023-05-21T06:46:21.107Z,20.67
2023-05-21T06:48:48.065Z,25.50
2023-05-21T06:51:15.655Z,23.42
2023-05-21T06:53:42.508Z,25.73
2023-05-21T06:56:09.399Z,26.30
2023-05-21T06:58:36.366Z,25.92
2023-05-21T07:01:03.593Z,22.85
2023-05-21T07:03:30.821Z,25.10
2023-05-21T07:05:58.264Z,26.42
2023-05-21T07:08:25.482Z,26.05
2023-05-21T07:10:52.659Z,22.58
2023-05-21T07:13:19.567Z,23.92
2023-05-21T07:15:46.487Z,24.00
2023-05-21T07:18:14.104Z,23.20
2023-05-21T07:20:42.259Z,21.80
2023-05-21T07:23:09.196Z,24.60
2023-05-21T07:25:36.335Z,23.52
2023-05-21T07:28:05.886Z,20.65
2023-05-21T07:30:33.476Z,22.58
2023-05-21T07:33:01.630Z,24.15
2023-05-21T07:35:37.939Z,25.98
2023-05-21T07:38:06.501Z,22.17
2023-05-21T07:40:33.387Z,24.00
2023-05-21T07:43:00.580Z,24.30
2023-05-21T07:45:27.526Z,24.58
2023-05-21T07:47:54.401Z,21.50
2023-05-21T07:50:21.496Z,22.13
2023-05-21T07:52:48.351Z,25.02
2023-05-21T07:55:15.202Z,22.50
2023-05-21T07:57:43.156Z,23.00
2023-05-21T08:00:11.437Z,25.13
2023-05-21T08:02:38.694Z,21.10
2023-05-21T08:05:06.239Z,21.52
2023-05-21T08:07:33.417Z,23.27
2023-05-21T08:10:02.160Z,20.73
2023-05-21T08:12:29.704Z,24.23
2023-05-21T08:14:59.380Z,24.42
2023-05-21T08:17:28.871Z,23.20
2023-05-21T08:19:55.836Z,21.92
2023-05-21T08:22:23.199Z,22.02
2023-05-21T08:24:50.341Z,21.25
2023-05-21T08:27:17.253Z,21.70
2023-05-21T08:29:44.043Z,20.80
2023-05-21T08:32:11.116Z,22.92
2023-05-21T08:34:38.019Z,26.05
2023-05-21T08:37:04.958Z,23.90
2023-05-21T08:39:31.841Z,19.95
2023-05-21T08:42:12.998Z,22.00
2023-05-21T08:44:47.295Z,21.48
2023-05-21T08:47:19.241Z,24.30
2023-05-21T08:49:48.132Z,22.13
2023-05-21T08:52:15.898Z,22.80
2023-05-21T08:54:44.763Z,22.38
2023-05-21T08:57:12.564Z,23.52
2023-05-21T08:59:44.126Z,22.25
2023-05-21T09:02:14.059Z,22.05
2023-05-21T09:04:42.360Z,19.13
2023-05-21T09:07:10.848Z,19.02
2023-05-21T09:09:49.574Z,23.00
2023-05-21T09:12:16.964Z,20.55
2023-05-21T09:14:44.114Z,22.08
2023-05-21T09:17:14.917Z,20.13
2023-05-21T09:20:10.569Z,19.88
2023-05-21T09:22:47.012Z,23.00
2023-05-21T09:25:23.412Z,23.55
2023-05-21T09:27:51.014Z,20.00
2023-05-21T09:30:20.872Z,22.35
2023-05-21T09:32:58.449Z,20.77
2023-05-21T09:35:25.816Z,18.45
2023-05-21T09:37:53.766Z,23.52
2023-05-21T09:40:22.296Z,23.85
2023-05-21T09:42:49.739Z,20.80
2023-05-21T09:45:20.306Z,19.65
2023-05-21T09:47:48.808Z,20.35
2023-05-21T09:50:27.837Z,22.65
2023-05-21T09:52:56.857Z,24.33
2023-05-21T09:55:28.827Z,21.40
2023-05-21T09:57:58.073Z,22.73
2023-05-21T10:00:28.200Z,20.20
2023-05-21T10:02:57.313Z,18.92
2023-05-21T10:05:28.290Z,22.80
2023-05-21T10:08:02.221Z,18.23
2023-05-21T10:10:30.537Z,19.80
2023-05-21T10:13:08.773Z,23.88
2023-05-21T10:15:40.906Z,19.80
2023-05-21T10:18:10.137Z,17.75
2023-05-21T10:20:38.061Z,22.05
2023-05-21T10:23:05.471Z,20.60
2023-05-21T10:25:32.853Z,18.55
2023-05-21T10:27:59.761Z,21.98
2023-05-21T10:30:27.175Z,21.92
2023-05-21T10:32:57.941Z,25.40
2023-05-21T10:35:25.222Z,20.38
2023-05-21T10:37:52.882Z,20.30
2023-05-21T10:40:20.468Z,24.40
2023-05-21T10:43:02.467Z,19.85
2023-05-21T10:45:48.043Z,23.77
2023-05-21T10:48:36.075Z,21.63
2023-05-21T10:51:27.081Z,20.90
2023-05-21T10:54:26.564Z,20.67
2023-05-21T10:56:54.713Z,20.98
2023-05-21T10:59:30.098Z,24.45
2023-05-21T11:01:57.664Z,20.88
2023-05-21T11:04:28.065Z,22.17
2023-05-21T11:06:56.388Z,18.20
2023-05-21T11:09:23.414Z,19.88
2023-05-21T11:11:51.860Z,21.02
2023-05-21T11:14:40.626Z,24.05
2023-05-21T11:17:16.593Z,21.58
2023-05-21T11:19:52.939Z,22.40
2023-05-21T11:22:22.842Z,18.67
2023-05-21T11:24:51.375Z,19.85
2023-05-21T11:27:37.095Z,19.00
2023-05-21T11:30:24.145Z,23.15
2023-05-21T11:33:12.358Z,20.63
2023-05-21T11:35:45.190Z,22.35
2023-05-21T11:40:50.033Z,21.15
2023-05-21T11:43:18.362Z,25.42
2023-05-21T11:45:47.362Z,24.73
2023-05-21T11:48:14.573Z,19.10
2023-05-21T11:50:42.613Z,20.38
2023-05-21T11:53:12.159Z,21.33
2023-05-21T11:55:44.217Z,17.65
2023-05-21T11:58:14.587Z,18.48
2023-05-21T12:00:41.502Z,15.73
2023-05-21T12:03:12.946Z,17.38
2023-05-21T12:05:47.898Z,18.02
2023-05-21T12:08:22.884Z,19.05
2023-05-21T12:10:55.151Z,18.05
2023-05-21T12:13:22.774Z,18.08
2023-05-21T12:15:49.891Z,15.23
2023-05-21T12:18:16.913Z,14.27
2023-05-21T12:20:45.626Z,17.55
2023-05-21T12:23:24.495Z,15.68
2023-05-21T12:25:53.634Z,16.83
2023-05-21T12:28:24.844Z,15.23
2023-05-21T12:30:53.815Z,16.63
2023-05-21T12:33:22.458Z,13.75
2023-05-21T12:35:51.736Z,15.40
2023-05-21T12:38:18.642Z,18.88
2023-05-21T12:40:45.697Z,16.50
2023-05-21T12:43:12.888Z,15.93
2023-05-21T12:45:40.065Z,13.18
2023-05-21T12:48:07.200Z,16.70
2023-05-21T12:50:35.837Z,16.80
2023-05-21T12:53:03.522Z,13.57
2023-05-21T12:55:32.053Z,17.17
2023-05-21T12:58:05.561Z,14.38
2023-05-21T13:00:33.494Z,13.43
2023-05-21T13:03:01.884Z,15.00
2023-05-21T13:05:29.108Z,14.82
2023-05-21T13:07:55.978Z,13.25
2023-05-21T13:10:22.917Z,13.00
2023-05-21T13:12:50.106Z,14.45
2023-05-21T13:15:17.321Z,12.75
2023-05-21T13:17:44.369Z,13.95
2023-05-21T13:20:15.462Z,14.40
2023-05-21T13:22:45.205Z,11.82
2023-05-21T13:25:15.933Z,13.13
2023-05-21T13:27:43.986Z,11.70
2023-05-21T13:30:11.823Z,11.55
2023-05-21T13:32:40.382Z,13.35
2023-05-21T13:35:08.519Z,11.45
2023-05-21T13:37:36.248Z,12.15
2023-05-21T13:40:07.708Z,11.55
2023-05-21T13:42:36.098Z,16.10
2023-05-21T13:45:03.100Z,10.48
2023-05-21T13:47:31.840Z,12.82
2023-05-21T13:49:58.745Z,11.93
2023-05-21T13:52:26.015Z,13.10
2023-05-21T13:54:53.550Z,10.90
2023-05-21T13:57:21.077Z,12.38
2023-05-21T13:59:48.681Z,13.63
2023-05-21T14:02:15.498Z,11.15
2023-05-21T14:04:42.821Z,12.85
2023-05-21T14:07:11.305Z,10.32
2023-05-21T14:09:38.879Z,11.57
2023-05-21T14:12:09.291Z,10.77
2023-05-21T14:14:36.427Z,13.57
2023-05-21T14:17:03.423Z,13.02
2023-05-21T14:19:30.448Z,12.55
2023-05-21T14:21:59.999Z,11.40
2023-05-21T14:24:27.403Z,10.75
2023-05-21T14:26:54.656Z,12.27
2023-05-21T14:29:21.589Z,11.70
2023-05-21T14:31:48.869Z,15.35
2023-05-21T14:34:16.118Z,11.10
2023-05-21T14:36:43.025Z,10.45
2023-05-21T14:39:09.949Z,9.57
2023-05-21T14:41:39.762Z,10.95
2023-05-21T14:44:07.043Z,9.98
2023-05-21T14:46:34.350Z,10.30
2023-05-21T14:49:01.763Z,12.93
2023-05-21T14:51:28.908Z,14.55
2023-05-21T14:53:57.902Z,10.65
2023-05-21T14:56:27.340Z,11.52
2023-05-21T14:58:54.892Z,14.38
2023-05-21T15:01:22.073Z,11.73
2023-05-21T15:03:49.405Z,13.75
2023-05-21T15:06:16.919Z,14.52
2023-05-21T15:08:44.008Z,11.25
2023-05-21T15:11:11.598Z,11.77
2023-05-21T15:13:39.160Z,14.38
2023-05-21T15:16:06.562Z,15.90
2023-05-21T15:18:33.621Z,11.80
2023-05-21T15:21:00.668Z,12.40
2023-05-21T15:23:27.727Z,15.40
2023-05-21T15:25:54.628Z,11.40
2023-05-21T15:28:22.972Z,13.73
2023-05-21T15:30:50.244Z,12.80
2023-05-21T15:33:17.172Z,11.57
2023-05-21T15:35:44.464Z,13.82
2023-05-21T15:38:11.845Z,12.27
2023-05-21T15:40:41.394Z,14.13
2023-05-21T15:43:08.442Z,12.73
2023-05-21T15:45:35.847Z,12.55
2023-05-21T15:48:02.976Z,13.15
2023-05-21T15:50:30.135Z,13.40
2023-05-21T15:52:57.229Z,15.07
2023-05-21T15:55:24.162Z,13.60
2023-05-21T15:57:51.040Z,17.15
2023-05-21T16:00:18.251Z,16.35
2023-05-21T16:02:45.357Z,14.88
2023-05-21T16:05:12.145Z,12.90
2023-05-21T16:07:39.116Z,13.98
2023-05-21T16:10:08.511Z,15.25
2023-05-21T16:12:35.851Z,13.63
2023-05-21T16:15:02.762Z,18.02
2023-05-21T16:17:29.984Z,17.20
2023-05-21T16:19:56.892Z,16.13
2023-05-21T16:22:24.653Z,14.30
2023-05-21T16:24:51.631Z,10.02
2023-05-21T16:27:18.434Z,12.38
2023-05-21T16:29:45.262Z,10.57
2023-05-21T16:32:13.867Z,9.07
2023-05-21T16:34:41.796Z,8.68
2023-05-21T16:37:09.751Z,6.75
2023-05-21T16:39:36.918Z,6.45
2023-05-21T16:42:04.025Z,6.85
2023-05-21T16:44:32.059Z,10.93
2023-05-21T16:47:03.170Z,8.68
2023-05-21T16:49:30.059Z,9.02
2023-05-21T16:51:56.870Z,8.23
2023-05-21T16:54:23.659Z,7.88
2023-05-21T16:56:50.609Z,9.73
2023-05-21T16:59:17.707Z,10.55
2023-05-21T17:01:44.663Z,10.13
2023-05-21T17:04:11.731Z,15.43
2023-05-21T17:06:38.551Z,11.23
2023-05-21T17:09:05.443Z,11.35
2023-05-21T17:11:32.373Z,11.57
2023-05-21T17:13:59.164Z,9.45
2023-05-21T17:16:26.205Z,11.93
2023-05-21T17:18:53.116Z,9.82
2023-05-21T17:21:19.894Z,9.98
2023-05-21T17:23:46.717Z,11.13
2023-05-21T17:26:14.013Z,12.45
2023-05-21T17:28:40.998Z,12.88
2023-05-21T17:31:08.902Z,8.43
2023-05-21T17:33:37.407Z,10.90
2023-05-21T17:36:04.477Z,8.68
2023-05-21T17:38:31.305Z,12.77
2023-05-21T17:40:58.935Z,11.20
2023-05-21T17:43:28.890Z,13.00
2023-05-21T17:45:55.815Z,12.60
2023-05-21T17:48:22.655Z,10.77
2023-05-21T17:50:49.667Z,10.82
2023-05-21T17:53:16.623Z,13.90
2023-05-21T17:55:43.554Z,11.65
2023-05-21T17:58:10.418Z,11.93
2023-05-21T18:00:37.262Z,13.88
2023-05-21T18:03:04.317Z,14.32
2023-05-21T18:05:31.157Z,11.00
2023-05-21T18:07:58.828Z,14.27
2023-05-21T18:10:25.739Z,11.80
2023-05-21T18:12:52.549Z,13.57
2023-05-21T18:15:19.538Z,13.68
2023-05-21T18:17:47.964Z,11.10
2023-05-21T18:20:15.482Z,12.00
2023-05-21T18:22:42.357Z,13.52
2023-05-21T18:25:09.673Z,11.80
2023-05-21T18:27:36.769Z,13.98
2023-05-21T18:30:06.326Z,15.55
2023-05-21T18:32:38.843Z,14.57
2023-05-21T18:37:44.642Z,18.52
2023-05-21T18:40:13.245Z,16.92
2023-05-21T18:42:40.545Z,16.95
2023-05-21T18:45:08.677Z,17.52
2023-05-21T18:47:35.861Z,18.38
2023-05-21T18:50:02.757Z,18.98
2023-05-21T18:52:29.600Z,17.17
2023-05-21T18:54:56.408Z,14.68
2023-05-21T18:57:23.334Z,16.77
2023-05-21T18:59:50.261Z,20.45
2023-05-21T19:02:17.165Z,19.75
2023-05-21T19:04:44.165Z,19.02
2023-05-21T19:07:11.069Z,19.13
2023-05-21T19:09:37.956Z,21.05
2023-05-21T19:12:05.129Z,19.98
2023-05-21T19:14:31.931Z,23.27
2023-05-21T19:16:58.793Z,17.98
2023-05-21T19:19:26.083Z,19.83
2023-05-21T19:21:53.453Z,23.38
2023-05-21T19:24:20.424Z,21.40
2023-05-21T19:26:47.249Z,20.98
2023-05-21T19:29:14.078Z,22.92
2023-05-21T19:31:41.236Z,21.02
2023-05-21T19:34:10.861Z,20.48
2023-05-21T19:36:51.435Z,20.20
2023-05-21T19:39:19.713Z,21.27
2023-05-21T19:41:46.657Z,21.20
2023-05-21T19:44:13.710Z,21.52
2023-05-21T19:46:40.717Z,19.23
2023-05-21T19:49:07.944Z,20.17
2023-05-21T19:51:35.221Z,25.42
2023-05-21T19:54:01.987Z,22.17
2023-05-21T19:56:28.813Z,22.40
2023-05-21T19:58:55.644Z,22.70
2023-05-21T20:01:23.401Z,24.20
2023-05-21T20:03:50.914Z,22.58
2023-05-21T20:06:19.228Z,24.95
2023-05-21T20:08:49.663Z,27.25
2023-05-21T20:11:16.693Z,24.65
2023-05-21T20:13:49.806Z,25.50
2023-05-21T20:16:18.627Z,22.55
2023-05-21T20:18:49.285Z,23.20
2023-05-21T20:21:21.479Z,23.92
2023-05-21T20:23:49.060Z,23.25
2023-05-21T20:26:19.670Z,20.33
2023-05-21T20:28:46.916Z,22.08
2023-05-21T20:31:14.437Z,24.48
2023-05-21T20:33:42.260Z,23.63
2023-05-21T20:36:09.900Z,27.67
2023-05-21T20:38:38.524Z,26.25
2023-05-21T20:41:05.623Z,24.75
2023-05-21T20:43:33.064Z,25.75
2023-05-21T20:46:00.177Z,25.02
2023-05-21T20:48:32.003Z,23.95
2023-05-21T20:51:03.445Z,27.02
2023-05-21T20:53:31.358Z,24.13
2023-05-21T20:55:58.676Z,23.80
2023-05-21T20:58:26.121Z,27.42
2023-05-21T21:00:55.171Z,25.15
2023-05-21T21:03:22.673Z,24.55
2023-05-21T21:05:50.114Z,23.83
2023-05-21T21:08:17.477Z,25.55
2023-05-21T21:10:47.461Z,25.35
2023-05-21T21:13:14.832Z,23.02
2023-05-21T21:15:44.141Z,24.23
2023-05-21T21:18:12.665Z,26.60
2023-05-21T21:20:41.495Z,24.35
2023-05-21T21:23:09.006Z,24.65
2023-05-21T21:25:36.466Z,24.25
2023-05-21T21:28:03.570Z,22.10
2023-05-21T21:30:31.242Z,27.75
2023-05-21T21:32:58.199Z,25.23
2023-05-21T21:35:25.584Z,22.38
2023-05-21T21:37:52.843Z,27.48
2023-05-21T21:40:19.759Z,23.88
2023-05-21T21:42:46.909Z,25.35
2023-05-21T21:45:13.896Z,24.08
2023-05-21T21:47:41.313Z,25.25
2023-05-21T21:50:10.021Z,25.90
2023-05-21T21:52:43.146Z,26.13
2023-05-21T21:55:11.407Z,26.42
2023-05-21T21:57:39.582Z,25.95
2023-05-21T22:00:15.852Z,21.73
2023-05-21T22:02:46.696Z,26.00
2023-05-21T22:05:17.233Z,26.52
2023-05-21T22:07:47.269Z,27.23
2023-05-21T22:10:15.401Z,23.98
2023-05-21T22:12:43.304Z,24.25
2023-05-21T22:15:18.817Z,24.48
2023-05-21T22:17:48.368Z,25.92
2023-05-21T22:20:17.483Z,27.30
2023-05-21T22:22:46.329Z,25.60
2023-05-21T22:25:14.467Z,29.05
2023-05-21T22:27:42.617Z,24.63
2023-05-21T22:30:10.233Z,25.60
2023-05-21T22:32:37.771Z,31.02
2023-05-21T22:35:05.182Z,27.05
2023-05-21T22:37:32.067Z,27.67
2023-05-21T22:40:02.102Z,28.30
2023-05-21T22:42:29.026Z,28.80
2023-05-21T22:44:56.034Z,29.40
2023-05-21T22:47:23.904Z,30.60
2023-05-21T22:49:53.891Z,30.48
2023-05-21T22:52:24.234Z,34.50
2023-05-21T22:54:55.372Z,32.47
2023-05-21T22:57:22.144Z,31.70
2023-05-21T22:59:49.081Z,30.70
2023-05-21T23:02:16.700Z,30.65
2023-05-21T23:04:44.755Z,30.40
2023-05-21T23:07:12.501Z,34.55
2023-05-21T23:09:39.431Z,31.23
2023-05-21T23:12:07.116Z,35.22
2023-05-21T23:14:34.121Z,31.02
2023-05-21T23:17:05.801Z,34.60
2023-05-21T23:19:33.284Z,34.88
2023-05-21T23:22:00.550Z,33.17
2023-05-21T23:24:29.655Z,34.38
2023-05-21T23:27:03.233Z,31.88
2023-05-21T23:29:30.844Z,34.05
2023-05-21T23:31:58.472Z,36.53
2023-05-21T23:34:26.041Z,36.08
2023-05-21T23:36:52.933Z,34.78
2023-05-21T23:39:19.824Z,35.47
2023-05-21T23:41:47.297Z,33.22
2023-05-21T23:44:15.465Z,34.00
2023-05-21T23:46:45.798Z,33.33
2023-05-21T23:49:12.962Z,37.92
2023-05-21T23:51:40.225Z,31.10
2023-05-21T23:54:08.184Z,38.45
2023-05-21T23:56:35.188Z,36.80
2023-05-21T23:59:02.135Z,36.65
